Time;durP1;ratioP1;P1;durP2;ratioP2;P2;SDS_P1;SDS_P2;PMS_P1;PMS_P2;Temp;Humidity;BMP_temperature;BMP_pressure;BME280_temperature;BME280_humidity;BME280_pressure;Samples;Min_cycle;Max_cycle;Signal;HPM_P1;HPM_P2
2022/09/30 00:01:41;;;;;;;3.70;1.30;;;6.10;99.90;;;;;;5045146;28;20494;-79
2022/09/30 00:04:11;;;;;;;2.58;1.20;;;6.10;99.90;;;;;;5029486;28;20025;-78
2022/09/30 00:06:37;;;;;;;2.08;1.15;;;6.10;99.90;;;;;;5030141;28;20072;-79
2022/09/30 00:09:03;;;;;;;1.77;0.93;;;6.00;99.90;;;;;;5028031;28;20048;-79
2022/09/30 00:11:32;;;;;;;3.00;1.15;;;6.00;99.90;;;;;;5010973;28;20515;-78
2022/09/30 00:14:00;;;;;;;2.03;1.05;;;5.90;99.90;;;;;;5012407;28;20064;-79
2022/09/30 00:16:30;;;;;;;2.03;1.00;;;5.80;99.90;;;;;;5028149;28;20034;-78
2022/09/30 00:18:57;;;;;;;2.78;1.35;;;5.90;99.90;;;;;;5044862;28;20455;-79
2022/09/30 00:21:24;;;;;;;2.28;1.05;;;5.90;99.90;;;;;;5027937;28;20128;-79
2022/09/30 00:23:50;;;;;;;2.05;0.98;;;5.90;99.90;;;;;;5029664;28;20113;-79
2022/09/30 00:26:19;;;;;;;2.38;0.98;;;6.00;99.90;;;;;;5028942;28;20026;-78
2022/09/30 00:28:48;;;;;;;1.95;0.98;;;6.10;99.90;;;;;;5011860;28;20029;-79
2022/09/30 00:31:15;;;;;;;2.10;0.90;;;5.90;99.90;;;;;;5011411;28;20053;-79
2022/09/30 00:33:41;;;;;;;2.88;0.93;;;5.90;99.90;;;;;;5028144;28;20117;-78
2022/09/30 00:36:07;;;;;;;2.75;1.10;;;5.90;99.90;;;;;;5044946;28;20493;-78
2022/09/30 00:38:33;;;;;;;2.50;1.17;;;6.00;99.90;;;;;;5011789;28;20052;-78
2022/09/30 00:41:01;;;;;;;2.03;1.15;;;5.90;99.90;;;;;;5026880;28;20033;-79
2022/09/30 00:43:42;;;;;;;1.40;0.80;;;5.90;99.90;;;;;;5019223;28;20053;-79
2022/09/30 00:46:19;;;;;;;3.63;1.10;;;5.80;99.90;;;;;;5035767;28;20502;-78
2022/09/30 00:48:52;;;;;;;2.08;1.00;;;5.80;99.90;;;;;;5027488;28;20029;-79
2022/09/30 00:51:26;;;;;;;2.35;0.90;;;5.80;99.90;;;;;;5028533;28;20419;-79
2022/09/30 00:53:56;;;;;;;2.90;1.10;;;5.70;99.90;;;;;;5027002;28;20391;-79
2022/09/30 00:56:24;;;;;;;;;;;5.70;99.90;;;;;;5011251;28;20493;-78
2022/09/30 00:58:50;;;;;;;1.70;0.93;;;5.60;99.90;;;;;;5044323;28;19913;-79
2022/09/30 01:01:16;;;;;;;2.17;1.00;;;5.60;99.90;;;;;;5010878;28;20152;-78
2022/09/30 01:03:49;;;;;;;2.78;0.90;;;5.60;99.90;;;;;;5027416;28;20378;-79
2022/09/30 01:06:15;;;;;;;1.90;1.13;;;5.80;99.90;;;;;;5026597;28;20040;-79
2022/09/30 01:08:42;;;;;;;2.22;1.20;;;5.80;99.90;;;;;;5027091;28;20429;-79
2022/09/30 01:11:08;;;;;;;1.90;1.05;;;5.80;99.90;;;;;;5025940;28;20032;-78
2022/09/30 01:13:36;;;;;;;2.40;1.00;;;5.80;99.90;;;;;;5011354;28;20418;-79
2022/09/30 01:16:21;;;;;;;2.38;1.30;;;5.70;99.90;;;;;;5026719;28;20520;-79
2022/09/30 01:18:56;;;;;;;2.80;1.08;;;5.50;99.90;;;;;;5028538;28;20420;-78
2022/09/30 01:21:57;;;;;;;2.58;1.27;;;5.50;99.90;;;;;;5028216;28;20033;-78
2022/09/30 01:24:35;;;;;;;2.70;1.40;;;5.60;99.90;;;;;;5025839;28;20448;-79
2022/09/30 01:27:04;;;;;;;2.65;1.33;;;5.50;99.90;;;;;;5027661;28;20029;-80
2022/09/30 01:29:44;;;;;;;3.08;1.20;;;5.50;99.90;;;;;;5025889;28;20038;-78
2022/09/30 01:32:28;;;;;;;2.80;1.55;;;5.50;99.90;;;;;;5043444;28;20040;-78
2022/09/30 01:35:16;;;;;;;3.38;1.20;;;5.50;99.90;;;;;;5043459;28;20304;-78
2022/09/30 01:37:54;;;;;;;2.92;1.20;;;5.60;99.90;;;;;;5043790;28;20481;-78
2022/09/30 01:40:24;;;;;;;3.20;1.40;;;5.60;99.90;;;;;;5009589;28;20079;-79
2022/09/30 01:42:50;;;;;;;;;;;5.50;99.90;;;;;;5028537;28;20110;-79
2022/09/30 01:46:26;;;;;;;2.15;1.02;;;5.50;99.90;;;;;;5027749;28;19913;-79
2022/09/30 01:49:33;;;;;;;1.92;1.00;;;5.50;99.90;;;;;;4986372;28;20030;-78
2022/09/30 01:52:04;;;;;;;2.50;1.13;;;5.30;99.90;;;;;;4904054;29;20480;-79
2022/09/30 01:54:51;;;;;;;2.25;1.20;;;5.30;99.90;;;;;;4901756;29;20055;-79
2022/09/30 01:57:27;;;;;;;2.45;1.20;;;5.30;99.90;;;;;;4915605;29;20036;-79
2022/09/30 02:00:10;;;;;;;2.25;1.00;;;5.20;99.90;;;;;;4917310;29;20528;-79
2022/09/30 02:02:55;;;;;;;2.25;1.08;;;5.30;99.90;;;;;;4916965;29;20520;-79
2022/09/30 02:05:27;;;;;;;2.97;1.00;;;5.30;99.90;;;;;;4914771;29;20028;-79
2022/09/30 02:08:17;;;;;;;2.20;1.00;;;5.30;99.90;;;;;;4884807;29;20035;-78
2022/09/30 02:11:12;;;;;;;2.20;1.20;;;5.40;99.90;;;;;;4892547;29;20044;-77
2022/09/30 02:13:54;;;;;;;2.13;1.13;;;5.40;99.90;;;;;;4914290;29;20044;-79
2022/09/30 02:16:36;;;;;;;2.53;1.13;;;5.30;99.90;;;;;;4899820;29;20044;-79
2022/09/30 02:19:39;;;;;;;2.75;1.08;;;5.20;99.90;;;;;;4901733;29;20428;-79
2022/09/30 02:22:10;;;;;;;3.15;1.15;;;5.30;99.90;;;;;;4910120;29;20040;-78
2022/09/30 02:24:37;;;;;;;2.00;0.80;;;5.40;99.90;;;;;;4928326;29;20032;-79
2022/09/30 02:27:08;;;;;;;2.55;1.00;;;5.40;99.90;;;;;;4912377;29;20038;-77
2022/09/30 02:29:38;;;;;;;1.98;0.90;;;5.30;99.90;;;;;;5006909;28;20061;-78
2022/09/30 02:32:15;;;;;;;2.22;0.95;;;5.30;99.90;;;;;;5027385;28;20079;-78
2022/09/30 02:34:49;;;;;;;1.50;0.70;;;5.40;99.90;;;;;;5026133;28;20386;-79
2022/09/30 02:37:31;;;;;;;2.25;0.82;;;5.40;99.90;;;;;;5025243;28;20060;-78
2022/09/30 02:40:09;;;;;;;2.10;0.80;;;5.50;99.90;;;;;;5025800;28;20040;-79
2022/09/30 02:42:36;;;;;;;1.65;0.82;;;5.50;99.90;;;;;;5025938;28;20433;-78
2022/09/30 02:45:07;;;;;;;1.95;1.05;;;5.50;99.90;;;;;;5025006;28;20022;-79
2022/09/30 02:48:09;;;;;;;1.90;0.88;;;5.50;99.90;;;;;;5026883;28;20125;-79
2022/09/30 02:50:52;;;;;;;1.98;0.95;;;5.40;99.90;;;;;;5026348;28;20033;-79
2022/09/30 02:53:29;;;;;;;2.10;1.05;;;5.30;99.90;;;;;;5025343;28;20034;-79
2022/09/30 02:56:23;;;;;;;2.67;0.88;;;5.30;99.90;;;;;;5026196;28;20025;-78
2022/09/30 02:58:51;;;;;;;2.92;1.13;;;5.30;99.90;;;;;;5041887;28;20030;-78
2022/09/30 03:01:17;;;;;;;3.70;1.20;;;5.20;99.90;;;;;;5024327;28;20071;-78
2022/09/30 03:04:03;;;;;;;1.92;1.00;;;5.10;99.90;;;;;;5009585;28;20030;-78
2022/09/30 03:06:29;;;;;;;2.17;1.05;;;5.10;99.90;;;;;;5024356;28;20104;-79
2022/09/30 03:08:54;;;;;;;3.13;1.42;;;5.10;99.90;;;;;;5026175;28;20172;-79
2022/09/30 03:11:23;;;;;;;3.80;1.60;;;5.20;99.90;;;;;;5025254;28;20040;-78
2022/09/30 03:14:03;;;;;;;2.72;1.27;;;5.10;99.90;;;;;;5024617;28;20034;-78
2022/09/30 03:16:41;;;;;;;2.60;1.55;;;5.00;99.90;;;;;;5023461;28;20085;-78
2022/09/30 03:19:30;;;;;;;3.17;1.10;;;5.00;99.90;;;;;;5025643;28;20022;-79
2022/09/30 03:22:24;;;;;;;2.97;1.45;;;4.90;99.90;;;;;;5024151;28;20068;-78
2022/09/30 03:24:59;;;;;;;3.40;1.45;;;4.80;99.90;;;;;;5024353;28;20454;-78
2022/09/30 03:27:29;;;;;;;2.10;1.10;;;5.00;99.90;;;;;;5025054;28;20428;-79
2022/09/30 03:30:06;;;;;;;3.10;1.40;;;5.10;99.90;;;;;;5025143;28;20022;-78
2022/09/30 03:32:55;;;;;;;2.53;1.27;;;5.00;99.90;;;;;;5025217;28;20069;-79
2022/09/30 03:35:59;;;;;;;2.80;1.30;;;5.00;99.90;;;;;;5040250;28;20030;-78
2022/09/30 03:38:48;;;;;;;2.25;1.30;;;4.90;99.90;;;;;;4968365;28;20030;-77
2022/09/30 03:41:46;;;;;;;2.90;1.55;;;4.80;99.90;;;;;;4987785;28;20042;-78
2022/09/30 03:44:55;;;;;;;4.22;1.80;;;4.80;99.90;;;;;;4985928;28;20049;-79
2022/09/30 03:47:23;;;;;;;3.00;1.30;;;4.90;99.90;;;;;;4965825;28;20031;-78
2022/09/30 03:49:53;;;;;;;3.55;1.80;;;4.90;99.90;;;;;;4955682;28;20483;-78
2022/09/30 03:52:19;;;;;;;2.65;1.60;;;4.80;99.90;;;;;;4972012;28;20043;-78
2022/09/30 03:54:50;;;;;;;3.08;1.85;;;4.90;99.90;;;;;;4971876;28;20030;-78
2022/09/30 03:57:16;;;;;;;3.72;1.73;;;4.80;99.90;;;;;;4970877;28;20415;-77
2022/09/30 03:59:42;;;;;;;2.53;1.27;;;4.80;99.90;;;;;;4988186;28;20225;-78
2022/09/30 04:02:11;;;;;;;3.80;1.88;;;4.80;99.90;;;;;;4987523;28;20343;-78
2022/09/30 04:04:41;;;;;;;2.70;1.85;;;4.80;99.90;;;;;;4971301;28;20145;-80
2022/09/30 04:07:09;;;;;;;3.17;1.67;;;4.80;99.90;;;;;;4969850;28;20034;-79
2022/09/30 04:09:35;;;;;;;3.70;1.63;;;4.80;99.90;;;;;;4971647;28;20030;-78
2022/09/30 04:12:01;;;;;;;2.78;1.63;;;4.70;99.90;;;;;;4974841;28;20482;-78
2022/09/30 04:14:27;;;;;;;3.05;1.48;;;4.70;99.90;;;;;;5027636;28;20036;-79
2022/09/30 04:16:52;;;;;;;2.55;1.52;;;4.70;99.90;;;;;;5029777;28;20033;-78
2022/09/30 04:19:18;;;;;;;3.45;1.98;;;4.50;99.90;;;;;;5043791;28;20029;-78
2022/09/30 04:21:43;;;;;;;3.22;1.90;;;4.50;99.90;;;;;;5029629;28;20040;-79
2022/09/30 04:24:09;;;;;;;2.97;1.98;;;4.50;99.90;;;;;;5011474;28;20068;-78
2022/09/30 04:26:35;;;;;;;3.22;1.73;;;4.60;99.90;;;;;;5028718;28;20026;-79
2022/09/30 04:29:00;;;;;;;3.25;1.65;;;4.70;99.90;;;;;;5029485;28;20025;-78
2022/09/30 04:31:26;;;;;;;3.97;2.10;;;4.50;99.90;;;;;;5028804;28;20421;-78
2022/09/30 04:33:52;;;;;;;2.90;1.67;;;4.50;99.90;;;;;;5029040;28;20072;-78
2022/09/30 04:36:18;;;;;;;3.88;2.50;;;4.50;99.90;;;;;;5026821;28;20026;-79
2022/09/30 04:38:43;;;;;;;3.63;2.38;;;4.50;99.90;;;;;;5028438;28;20083;-79
2022/09/30 04:41:17;;;;;;;5.15;2.55;;;4.50;99.90;;;;;;5027564;28;20108;-79
2022/09/30 04:43:45;;;;;;;3.55;2.50;;;4.50;99.90;;;;;;5029164;28;20049;-79
2022/09/30 04:46:19;;;;;;;3.20;2.25;;;4.40;99.90;;;;;;5028928;28;20048;-78
2022/09/30 04:48:46;;;;;;;4.57;2.50;;;4.40;99.90;;;;;;5027185;28;20036;-79
2022/09/30 04:51:16;;;;;;;3.28;1.98;;;4.50;99.90;;;;;;5027392;28;20032;-79
2022/09/30 04:53:43;;;;;;;3.47;2.40;;;4.50;99.90;;;;;;5026808;28;20095;-79
2022/09/30 04:56:09;;;;;;;4.03;2.47;;;4.40;99.90;;;;;;5027679;28;20017;-80
2022/09/30 04:58:36;;;;;;;3.10;1.88;;;4.30;99.90;;;;;;5028322;28;20037;-77
2022/09/30 05:01:13;;;;;;;3.83;2.38;;;4.20;99.90;;;;;;5027027;28;20029;-78
2022/09/30 05:03:39;;;;;;;3.58;2.13;;;4.30;99.90;;;;;;5008031;28;20113;-78
2022/09/30 05:06:06;;;;;;;3.88;2.08;;;4.30;99.90;;;;;;5027335;28;20034;-79
2022/09/30 05:08:32;;;;;;;3.40;2.33;;;4.30;99.90;;;;;;5028466;28;20087;-79
2022/09/30 05:11:07;;;;;;;4.57;2.38;;;4.30;99.90;;;;;;5011072;28;20029;-79
2022/09/30 05:13:35;;;;;;;3.10;2.33;;;4.20;99.90;;;;;;5026713;28;20033;-80
2022/09/30 05:16:01;;;;;;;3.72;1.98;;;4.20;99.90;;;;;;5027134;28;20072;-79
2022/09/30 05:18:27;;;;;;;2.50;1.58;;;4.30;99.90;;;;;;5026439;28;20576;-80
2022/09/30 05:20:56;;;;;;;4.10;2.40;;;4.30;99.90;;;;;;5044556;28;20029;-79
2022/09/30 05:23:23;;;;;;;3.05;1.58;;;4.30;99.90;;;;;;5028098;28;20057;-79
2022/09/30 05:25:49;;;;;;;3.30;1.63;;;4.20;99.90;;;;;;5028789;28;20060;-77
2022/09/30 05:28:15;;;;;;;3.58;2.83;;;4.20;99.90;;;;;;5010333;28;20474;-79
2022/09/30 05:30:42;;;;;;;3.47;1.90;;;4.20;99.90;;;;;;5026679;28;20057;-79
2022/09/30 05:33:08;;;;;;;2.40;1.60;;;4.30;99.90;;;;;;5027903;28;20029;-77
2022/09/30 05:35:34;;;;;;;2.30;1.42;;;4.40;99.90;;;;;;5010659;28;20475;-80
2022/09/30 05:38:02;;;;;;;3.20;1.48;;;4.40;99.90;;;;;;5027202;28;20067;-80
2022/09/30 05:40:28;;;;;;;2.58;1.80;;;4.50;99.90;;;;;;5043057;28;20569;-79
2022/09/30 05:42:56;;;;;;;3.25;1.63;;;4.30;99.90;;;;;;5028170;28;20069;-77
2022/09/30 05:45:22;;;;;;;3.15;1.70;;;4.30;99.90;;;;;;5010000;28;20021;-78
2022/09/30 05:47:52;;;;;;;2.70;1.83;;;4.40;99.90;;;;;;5024351;28;20025;-79
2022/09/30 05:50:18;;;;;;;;;;;4.50;99.90;;;;;;5027715;28;20474;-79
2022/09/30 05:52:44;;;;;;;2.92;0.90;;;4.40;99.90;;;;;;5027000;28;19936;-78
2022/09/30 05:55:09;;;;;;;1.90;1.23;;;4.40;99.90;;;;;;5025670;28;20030;-79
2022/09/30 05:57:35;;;;;;;2.60;1.45;;;4.40;99.90;;;;;;5026262;28;20137;-79
2022/09/30 06:00:01;;;;;;;2.47;1.25;;;4.30;99.90;;;;;;5042294;28;20025;-80
2022/09/30 06:02:37;;;;;;;2.85;1.73;;;4.30;99.90;;;;;;5027317;28;20108;-78
2022/09/30 06:05:07;;;;;;;3.15;1.70;;;4.30;99.90;;;;;;5026340;28;20593;-78
2022/09/30 06:07:34;;;;;;;1.88;1.13;;;4.40;99.90;;;;;;5026299;28;20079;-78
2022/09/30 06:10:00;;;;;;;3.10;1.58;;;4.40;99.90;;;;;;5009808;28;20037;-78
2022/09/30 06:12:27;;;;;;;2.42;1.30;;;4.60;99.90;;;;;;5025760;28;20033;-79
2022/09/30 06:14:54;;;;;;;2.05;1.27;;;4.70;99.90;;;;;;5025371;28;20030;-77
2022/09/30 06:17:19;;;;;;;2.78;1.70;;;4.80;99.90;;;;;;5025267;28;20037;-79
2022/09/30 06:19:45;;;;;;;2.78;1.73;;;4.80;99.90;;;;;;5025984;28;20045;-79
2022/09/30 06:22:11;;;;;;;2.58;1.58;;;4.80;99.90;;;;;;5007508;28;20036;-78
2022/09/30 06:24:36;;;;;;;3.05;1.90;;;5.00;99.90;;;;;;5025474;28;20053;-78
2022/09/30 06:27:03;;;;;;;4.70;2.13;;;4.90;99.90;;;;;;5026931;28;20029;-80
2022/09/30 06:29:29;;;;;;;3.10;2.25;;;4.80;99.90;;;;;;5024704;28;20116;-78
2022/09/30 06:31:54;;;;;;;2.72;1.90;;;4.90;99.90;;;;;;5024391;28;20065;-79
2022/09/30 06:34:20;;;;;;;4.40;2.55;;;5.00;99.90;;;;;;5026085;28;20018;-78
2022/09/30 06:36:46;;;;;;;4.45;3.17;;;5.10;99.90;;;;;;5025932;28;20433;-79
2022/09/30 06:39:12;;;;;;;4.53;3.00;;;5.10;99.90;;;;;;5025338;28;20473;-79
2022/09/30 06:41:41;;;;;;;4.57;3.25;;;5.20;99.90;;;;;;5008947;28;20029;-79
2022/09/30 06:44:06;;;;;;;3.78;3.13;;;5.20;99.90;;;;;;5025787;28;20079;-77
2022/09/30 06:46:33;;;;;;;3.80;3.15;;;5.40;99.90;;;;;;5009079;28;20482;-79
2022/09/30 06:48:59;;;;;;;3.63;2.67;;;5.50;99.90;;;;;;5025267;28;20048;-78
2022/09/30 06:51:25;;;;;;;4.75;3.45;;;5.60;99.90;;;;;;5025179;28;20033;-80
2022/09/30 06:53:52;;;;;;;3.97;3.13;;;5.70;99.90;;;;;;5025470;28;20041;-79
2022/09/30 06:56:18;;;;;;;8.18;4.93;;;6.00;99.90;;;;;;5025096;28;20021;-78
2022/09/30 06:58:45;;;;;;;6.45;4.40;;;6.10;99.90;;;;;;5025120;28;20549;-80
2022/09/30 07:01:13;;;;;;;7.20;5.25;;;6.00;99.90;;;;;;5008840;28;20109;-79
2022/09/30 07:03:44;;;;;;;9.07;6.40;;;6.10;99.90;;;;;;5025861;28;20119;-80
2022/09/30 07:06:11;;;;;;;8.73;6.10;;;6.30;99.90;;;;;;5003538;28;20029;-78
2022/09/30 07:08:38;;;;;;;9.25;5.85;;;6.40;99.90;;;;;;5009116;28;20037;-79
2022/09/30 07:11:16;;;;;;;7.93;5.88;;;6.40;99.90;;;;;;5025652;28;20040;-79
2022/09/30 07:13:44;;;;;;;9.23;7.53;;;6.60;99.90;;;;;;5022771;28;20399;-79
2022/09/30 07:16:12;;;;;;;8.60;6.75;;;6.70;99.90;;;;;;5029677;28;20022;-79
2022/09/30 07:18:41;;;;;;;10.85;8.20;;;6.80;99.90;;;;;;5029245;28;20033;-80
2022/09/30 07:21:07;;;;;;;11.00;8.25;;;7.00;99.90;;;;;;5028723;28;20029;-79
2022/09/30 07:23:32;;;;;;;11.52;8.45;;;7.10;99.90;;;;;;5012407;28;20316;-79
2022/09/30 07:26:03;;;;;;;10.70;9.20;;;7.20;99.90;;;;;;5030293;28;20432;-78
2022/09/30 07:28:33;;;;;;;11.60;9.25;;;7.40;99.90;;;;;;5027791;28;20079;-78
2022/09/30 07:31:02;;;;;;;11.88;9.63;;;7.50;99.90;;;;;;5029057;28;20022;-78
2022/09/30 07:33:29;;;;;;;13.18;10.40;;;7.60;99.90;;;;;;5028511;28;20576;-80
2022/09/30 07:35:56;;;;;;;12.98;9.68;;;7.80;99.90;;;;;;5028494;28;20057;-79
2022/09/30 07:38:25;;;;;;;11.68;9.80;;;7.90;99.90;;;;;;5027986;28;20030;-79
2022/09/30 07:41:01;;;;;;;11.77;9.52;;;8.00;99.90;;;;;;5012146;28;20029;-79
2022/09/30 07:43:39;;;;;;;12.40;9.60;;;8.20;99.90;;;;;;5028100;28;20125;-79
2022/09/30 07:46:10;;;;;;;15.35;12.63;;;8.40;99.90;;;;;;5029869;28;20030;-78
2022/09/30 07:48:42;;;;;;;16.50;13.15;;;8.50;99.90;;;;;;5011959;28;20033;-80
2022/09/30 07:51:16;;;;;;;17.30;12.80;;;8.70;99.90;;;;;;5011583;28;20025;-78
2022/09/30 07:53:46;;;;;;;19.13;14.43;;;8.80;99.90;;;;;;5029620;28;20037;-78
2022/09/30 07:56:13;;;;;;;15.75;13.02;;;9.00;99.90;;;;;;5043883;28;20033;-79
2022/09/30 07:58:39;;;;;;;18.60;15.63;;;9.10;99.90;;;;;;5028273;28;20033;-79
2022/09/30 08:01:05;;;;;;;20.80;15.40;;;9.20;99.90;;;;;;5028061;28;20548;-80
2022/09/30 08:03:38;;;;;;;17.48;13.43;;;9.40;99.90;;;;;;5027799;28;20025;-79
2022/09/30 08:06:06;;;;;;;17.27;13.45;;;9.50;99.90;;;;;;5028615;28;20025;-79
2022/09/30 08:08:32;;;;;;;16.15;13.23;;;9.70;99.90;;;;;;5026969;28;20075;-79
2022/09/30 08:10:59;;;;;;;17.40;13.25;;;9.90;99.90;;;;;;5027793;28;20041;-79
2022/09/30 08:13:24;;;;;;;16.30;13.80;;;10.00;99.90;;;;;;5025946;28;20042;-79
2022/09/30 08:15:50;;;;;;;17.67;13.77;;;10.10;99.90;;;;;;5028909;28;20028;-79
2022/09/30 08:18:16;;;;;;;15.35;12.43;;;10.20;99.90;;;;;;5027407;28;20045;-79
2022/09/30 08:20:41;;;;;;;19.00;15.95;;;10.40;99.90;;;;;;5028455;28;20025;-80
2022/09/30 08:23:07;;;;;;;13.60;11.77;;;10.60;99.90;;;;;;5011090;28;20052;-79
2022/09/30 08:25:33;;;;;;;15.38;13.55;;;10.70;99.90;;;;;;5027526;28;20030;-79
2022/09/30 08:27:58;;;;;;;12.65;10.68;;;10.90;99.90;;;;;;5011387;28;20025;-80
2022/09/30 08:30:24;;;;;;;15.45;13.02;;;11.20;99.90;;;;;;5026782;28;20037;-78
2022/09/30 08:32:49;;;;;;;15.50;13.65;;;11.20;99.90;;;;;;5010943;28;20087;-81
2022/09/30 08:35:15;;;;;;;14.50;12.38;;;11.30;99.90;;;;;;5027680;28;20022;-79
2022/09/30 08:37:41;;;;;;;16.77;13.45;;;11.60;99.90;;;;;;5028165;28;20037;-80
2022/09/30 08:40:18;;;;;;;14.00;12.50;;;11.60;99.90;;;;;;5027319;28;20057;-82
2022/09/30 08:43:17;;;;;;;13.43;11.65;;;11.80;99.90;;;;;;5011048;28;20563;-79
2022/09/30 08:46:07;;;;;;;15.35;13.75;;;11.80;99.90;;;;;;5030320;28;20473;-82
2022/09/30 08:48:50;;;;;;;13.15;11.73;;;11.90;99.90;;;;;;5011000;28;20525;-81
2022/09/30 08:51:52;;;;;;;12.68;11.45;;;12.00;99.90;;;;;;5041983;28;20034;-82
2022/09/30 08:54:22;;;;;;;13.13;11.43;;;12.20;99.90;;;;;;4991777;28;20030;-81
2022/09/30 08:56:48;;;;;;;10.18;9.13;;;12.50;99.90;;;;;;5025113;28;20037;-83
2022/09/30 08:59:23;;;;;;;11.85;10.65;;;12.70;99.90;;;;;;5025543;28;20034;-81
2022/09/30 09:01:57;;;;;;;11.13;9.88;;;12.60;99.90;;;;;;5009241;28;20034;-81
2022/09/30 09:04:23;;;;;;;12.27;11.05;;;12.80;99.90;;;;;;4992621;28;20038;-79
2022/09/30 09:07:21;;;;;;;10.20;9.20;;;12.90;99.90;;;;;;5003352;28;20118;-80
2022/09/30 09:10:04;;;;;;;11.88;10.68;;;13.10;99.90;;;;;;4992294;28;20033;-81
2022/09/30 09:12:48;;;;;;;10.10;9.10;;;13.00;99.90;;;;;;5008979;28;20948;-82
2022/09/30 09:15:18;;;;;;;8.63;7.72;;;13.20;99.90;;;;;;5008331;28;20037;-80
2022/09/30 09:18:09;;;;;;;10.82;9.60;;;13.50;99.90;;;;;;5006916;28;20041;-81
2022/09/30 09:20:52;;;;;;;8.85;7.95;;;13.40;99.90;;;;;;4990426;28;20038;-80
2022/09/30 09:23:19;;;;;;;7.57;6.88;;;13.60;99.90;;;;;;5006854;28;20541;-82
2022/09/30 09:25:48;;;;;;;8.15;7.45;;;13.80;99.90;;;;;;5008997;28;20563;-80
2022/09/30 09:28:39;;;;;;;6.32;5.72;;;14.00;99.90;;;;;;5012708;28;20045;-81
2022/09/30 09:31:10;;;;;;;5.43;4.93;;;14.20;99.90;;;;;;5026894;28;20041;-81
2022/09/30 09:33:41;;;;;;;5.90;5.38;;;14.30;99.90;;;;;;5042456;28;20446;-83
2022/09/30 09:36:11;;;;;;;;;;;14.50;99.90;;;;;;5010629;28;20505;-81
2022/09/30 09:38:52;;;;;;;8.57;7.78;;;14.50;99.90;;;;;;5026050;28;19958;-84
2022/09/30 09:41:40;;;;;;;9.43;8.20;;;14.30;99.90;;;;;;5042289;28;20033;-82
2022/09/30 09:44:26;;;;;;;7.30;6.57;;;14.40;99.90;;;;;;5008625;28;20095;-84
2022/09/30 09:46:54;;;;;;;6.18;5.68;;;14.60;99.90;;;;;;5025616;28;20116;-82
2022/09/30 09:49:22;;;;;;;5.40;4.85;;;14.70;99.90;;;;;;5042522;28;20056;-83
2022/09/30 09:52:32;;;;;;;5.95;5.10;;;14.90;99.90;;;;;;5026758;28;20025;-83
2022/09/30 09:54:59;;;;;;;7.15;6.20;;;15.00;99.90;;;;;;4992110;28;20041;-82
2022/09/30 09:57:31;;;;;;;9.15;8.25;;;15.10;99.90;;;;;;5010103;28;20038;-83
2022/09/30 10:02:59;;;;;;;7.78;6.93;;;14.90;99.90;;;;;;5026490;28;20068;-82
2022/09/30 10:05:25;;;;;;;11.07;7.20;;;15.10;99.90;;;;;;5025722;28;20489;-83
2022/09/30 10:08:13;;;;;;;7.95;7.20;;;15.20;99.90;;;;;;5025790;28;20052;-82
2022/09/30 10:10:47;;;;;;;6.60;6.00;;;15.40;99.90;;;;;;5025658;28;20097;-82
2022/09/30 10:13:17;;;;;;;8.75;7.93;;;15.50;99.90;;;;;;5009341;28;20486;-83
2022/09/30 10:15:42;;;;;;;9.60;8.70;;;15.30;99.90;;;;;;5026807;28;20017;-82
2022/09/30 10:18:18;;;;;;;9.02;8.13;;;15.30;99.90;;;;;;5025761;28;20040;-81
2022/09/30 10:20:50;;;;;;;9.15;8.30;;;15.50;99.90;;;;;;5025965;28;20492;-83
2022/09/30 10:23:25;;;;;;;8.20;7.45;;;15.60;99.90;;;;;;5008279;28;20117;-83
2022/09/30 10:26:14;;;;;;;8.43;7.60;;;15.70;99.90;;;;;;5026012;28;20100;-82
2022/09/30 10:28:50;;;;;;;8.43;7.55;;;15.70;99.90;;;;;;5025658;28;20524;-82
2022/09/30 10:31:24;;;;;;;8.73;7.82;;;15.90;99.90;;;;;;5008925;28;20121;-80
2022/09/30 10:33:59;;;;;;;8.10;7.32;;;16.10;99.90;;;;;;5026620;28;20481;-81
2022/09/30 10:36:34;;;;;;;8.07;7.32;;;16.00;99.90;;;;;;5024901;28;20056;-81
2022/09/30 10:39:20;;;;;;;9.80;8.90;;;16.30;99.90;;;;;;5027320;28;20561;-80
2022/09/30 10:41:46;;;;;;;8.55;7.70;;;16.10;99.90;;;;;;5026253;28;20034;-84
2022/09/30 10:44:17;;;;;;;8.98;8.02;;;15.90;99.90;;;;;;5008505;28;20044;-85
2022/09/30 10:46:44;;;;;;;12.68;10.43;;;16.00;99.90;;;;;;5008976;28;20033;-84
2022/09/30 10:49:27;;;;;;;10.65;9.65;;;15.90;99.90;;;;;;5025008;28;20035;-81
2022/09/30 10:51:58;;;;;;;9.27;8.38;;;15.80;99.90;;;;;;5029533;28;20033;-84
2022/09/30 10:54:33;;;;;;;9.20;8.35;;;16.10;99.90;;;;;;5027841;28;20033;-83
2022/09/30 10:57:03;;;;;;;10.10;9.10;;;16.00;99.90;;;;;;5031582;28;20444;-84
2022/09/30 10:59:36;;;;;;;13.20;11.90;;;16.20;99.90;;;;;;5028866;28;20033;-81
2022/09/30 11:02:22;;;;;;;10.20;9.20;;;16.00;99.90;;;;;;5012932;28;20029;-83
2022/09/30 11:05:01;;;;;;;8.90;8.10;;;16.40;99.90;;;;;;5045490;28;20022;-82
2022/09/30 11:07:42;;;;;;;10.68;9.65;;;16.40;99.90;;;;;;5044677;28;20034;-83
2022/09/30 11:10:43;;;;;;;7.85;7.10;;;16.20;99.90;;;;;;5028887;28;20029;-81
2022/09/30 11:13:36;;;;;;;11.45;10.35;;;16.50;99.90;;;;;;5029593;28;20038;-82
2022/09/30 11:16:07;;;;;;;8.55;7.75;;;16.50;99.90;;;;;;5029840;28;20029;-84
2022/09/30 11:18:55;;;;;;;11.90;10.70;;;16.80;99.90;;;;;;5029718;28;20030;-82
2022/09/30 11:21:31;;;;;;;10.32;8.98;;;16.40;99.90;;;;;;5029582;28;20091;-83
2022/09/30 11:24:16;;;;;;;8.05;7.25;;;16.70;99.90;;;;;;5028677;28;20022;-81
2022/09/30 11:27:02;;;;;;;9.77;8.88;;;16.60;99.90;;;;;;5028784;28;20421;-83
2022/09/30 11:29:59;;;;;;;8.13;7.43;;;16.50;99.90;;;;;;5028068;28;20402;-83
2022/09/30 11:32:36;;;;;;;9.32;8.15;;;16.50;99.90;;;;;;5029760;28;20029;-82
2022/09/30 11:35:19;;;;;;;7.78;6.97;;;16.50;99.90;;;;;;5012335;28;20072;-86
2022/09/30 11:38:06;;;;;;;8.18;7.38;;;16.60;99.90;;;;;;5028798;28;20112;-81
2022/09/30 11:40:35;;;;;;;10.13;9.13;;;16.50;99.90;;;;;;5029745;28;20021;-83
2022/09/30 11:43:28;;;;;;;9.55;8.65;;;16.20;99.90;;;;;;5028318;28;20055;-83
2022/09/30 11:46:14;;;;;;;8.05;7.25;;;16.20;99.90;;;;;;5026287;28;20034;-83
2022/09/30 11:48:49;;;;;;;6.47;5.22;;;16.30;99.90;;;;;;4995770;28;20029;-82
2022/09/30 11:51:40;;;;;;;6.57;5.88;;;16.30;99.90;;;;;;5006948;28;20478;-83
2022/09/30 11:54:18;;;;;;;6.93;6.22;;;16.50;99.90;;;;;;5027081;28;20037;-86
2022/09/30 11:56:55;;;;;;;4.97;3.97;;;16.40;99.90;;;;;;5028293;28;20114;-82
2022/09/30 11:59:30;;;;;;;7.72;6.80;;;16.70;99.90;;;;;;5026427;28;20033;-82
2022/09/30 12:02:02;;;;;;;6.35;4.75;;;16.40;99.90;;;;;;5010283;28;20116;-83
2022/09/30 12:04:37;;;;;;;4.13;3.60;;;15.80;99.90;;;;;;5026704;28;20036;-82
2022/09/30 12:07:36;;;;;;;3.03;1.88;;;16.40;99.90;;;;;;5010529;28;20068;-83
2022/09/30 12:10:17;;;;;;;2.17;1.23;;;16.80;99.90;;;;;;5043399;28;20421;-83
2022/09/30 12:12:45;;;;;;;3.30;2.50;;;16.90;99.90;;;;;;5042822;28;20108;-82
2022/09/30 12:15:17;;;;;;;3.25;2.22;;;17.20;99.90;;;;;;5027237;28;20558;-83
2022/09/30 12:17:45;;;;;;;3.90;2.10;;;17.20;99.90;;;;;;5027268;28;20061;-81
2022/09/30 12:20:24;;;;;;;4.10;2.45;;;17.00;99.90;;;;;;5027831;28;20025;-86
2022/09/30 12:22:55;;;;;;;2.67;1.75;;;17.00;99.90;;;;;;5027762;28;20367;-83
2022/09/30 12:25:42;;;;;;;5.70;3.22;;;17.00;99.90;;;;;;5025923;28;20073;-84
2022/09/30 12:31:38;;;;;;;5.07;3.30;;;17.10;99.90;;;;;;5027585;28;20040;-83
2022/09/30 12:34:11;;;;;;;6.40;3.92;;;17.30;99.90;;;;;;5026709;28;20260;-83
2022/09/30 12:37:11;;;;;;;4.72;2.78;;;16.90;99.90;;;;;;5025884;28;20033;-81
2022/09/30 12:39:47;;;;;;;;;;;16.60;99.90;;;;;;5027281;28;20271;-81
2022/09/30 12:42:32;;;;;;;4.90;2.67;;;16.60;99.90;;;;;;4989621;28;1062598;-82
2022/09/30 12:45:16;;;;;;;2.90;1.55;;;16.50;99.90;;;;;;5045040;28;20100;-84
2022/09/30 12:47:55;;;;;;;6.20;2.80;;;16.90;99.90;;;;;;5011245;28;20091;-84
2022/09/30 12:50:25;;;;;;;4.60;2.57;;;17.20;99.90;;;;;;5028125;28;20029;-84
2022/09/30 12:52:51;;;;;;;2.90;1.38;;;17.20;99.90;;;;;;5027728;28;20029;-82
2022/09/30 12:55:37;;;;;;;3.05;1.13;;;17.30;99.90;;;;;;5043708;28;20519;-85
2022/09/30 12:58:03;;;;;;;1.70;0.90;;;17.10;99.90;;;;;;5028711;28;20033;-83
2022/09/30 13:00:36;;;;;;;2.00;1.05;;;17.10;99.90;;;;;;5025281;28;20623;-83
2022/09/30 13:03:14;;;;;;;3.58;1.02;;;17.10;99.90;;;;;;5009391;28;20088;-82
2022/09/30 13:05:39;;;;;;;2.47;1.30;;;16.90;99.90;;;;;;5027853;28;20024;-83
2022/09/30 13:08:05;;;;;;;3.97;0.80;;;17.20;99.90;;;;;;5026924;28;20397;-83
2022/09/30 13:10:31;;;;;;;2.58;0.52;;;17.30;99.90;;;;;;5010731;28;20448;-83
2022/09/30 13:13:24;;;;;;;2.10;0.85;;;17.30;99.90;;;;;;5026063;28;20124;-82
2022/09/30 13:15:51;;;;;;;2.03;0.70;;;17.20;99.90;;;;;;5027983;28;20477;-83
2022/09/30 13:18:25;;;;;;;1.75;0.50;;;17.30;99.90;;;;;;5027710;28;20040;-83
2022/09/30 13:21:04;;;;;;;1.42;0.60;;;17.30;99.90;;;;;;5026219;28;20084;-83
2022/09/30 13:23:39;;;;;;;1.98;0.60;;;16.90;99.90;;;;;;5010950;28;20128;-82
2022/09/30 13:26:27;;;;;;;1.20;0.40;;;16.80;99.90;;;;;;5042469;28;20164;-83
2022/09/30 13:29:16;;;;;;;0.98;0.35;;;17.30;99.90;;;;;;5026472;28;20021;-82
2022/09/30 13:31:44;;;;;;;1.70;0.30;;;17.40;99.90;;;;;;5004522;28;20026;-81